Time;durP1;ratioP1;P1;durP2;ratioP2;P2;SDS_P1;SDS_P2;PMS_P1;PMS_P2;Temp;Humidity;BMP_temperature;BMP_pressure;BME280_temperature;BME280_humidity;BME280_pressure;Samples;Min_cycle;Max_cycle;Signal;HPM_P1;HPM_P2
2021/11/19 00:02:19;;;;;;;;;;;11.80;99.90;;;;;;5115459;28;19969;-74
2021/11/19 00:04:46;;;;;;;;;;;11.90;99.90;;;;;;5115505;28;20259;-73
2021/11/19 00:07:13;;;;;;;;;;;11.90;99.90;;;;;;5115289;28;19923;-73
2021/11/19 00:09:40;;;;;;;;;;;11.90;99.90;;;;;;5115276;28;19924;-74
2021/11/19 00:12:08;;;;;;;;;;;11.90;99.90;;;;;;5115466;28;20363;-74
2021/11/19 00:14:35;;;;;;;;;;;11.90;99.90;;;;;;5115429;28;19934;-73
2021/11/19 00:17:05;;;;;;;;;;;12.00;99.90;;;;;;5115276;28;19932;-74
2021/11/19 00:19:32;;;;;;;;;;;12.00;99.90;;;;;;5115234;28;19988;-74
2021/11/19 00:21:59;;;;;;;;;;;12.00;99.90;;;;;;5115203;28;19924;-73
2021/11/19 00:24:26;;;;;;;;;;;12.00;99.90;;;;;;5115288;28;19938;-73
2021/11/19 00:26:52;;;;;;;;;;;11.90;99.90;;;;;;5118067;28;19934;-74
2021/11/19 00:29:21;;;;;;;;;;;11.90;99.90;;;;;;5118889;28;19924;-74
2021/11/19 00:31:47;;;;;;;;;;;11.90;99.90;;;;;;5119027;28;20270;-75
2021/11/19 00:34:14;;;;;;;;;;;11.90;99.90;;;;;;5118870;28;19924;-73
2021/11/19 00:36:41;;;;;;;;;;;11.90;99.90;;;;;;5118801;28;19930;-74
2021/11/19 00:39:09;;;;;;;;;;;11.90;99.90;;;;;;5118731;28;19927;-74
2021/11/19 00:41:36;;;;;;;;;;;11.90;99.90;;;;;;5118604;28;20283;-74
2021/11/19 00:44:03;;;;;;;;;;;11.90;99.90;;;;;;5119213;28;19938;-74
2021/11/19 00:46:31;;;;;;;;;;;11.80;99.90;;;;;;5120153;28;20279;-76
2021/11/19 00:48:58;;;;;;;;;;;11.80;99.90;;;;;;5118931;28;20040;-79
2021/11/19 00:51:26;;;;;;;;;;;11.80;99.90;;;;;;5119052;28;19924;-75
2021/11/19 00:53:53;;;;;;;;;;;11.80;99.90;;;;;;5118413;28;19923;-72
2021/11/19 00:56:20;;;;;;;;;;;11.90;99.90;;;;;;5102109;28;19924;-72
2021/11/19 00:58:47;;;;;;;;;;;11.90;99.90;;;;;;5098211;28;19924;-73
2021/11/19 01:01:16;;;;;;;;;;;11.90;99.90;;;;;;5097749;28;19923;-73
2021/11/19 01:03:44;;;;;;;;;;;11.90;99.90;;;;;;5097849;28;20276;-73
2021/11/19 01:06:11;;;;;;;;;;;12.00;99.90;;;;;;5098080;28;20332;-73
2021/11/19 01:08:38;;;;;;;;;;;12.00;99.90;;;;;;5102400;28;20347;-73
2021/11/19 01:11:06;;;;;;;;;;;12.00;99.90;;;;;;5103441;28;19931;-73
2021/11/19 01:13:34;;;;;;;;;;;12.10;99.90;;;;;;5118235;28;20292;-73
2021/11/19 01:16:01;;;;;;;;;;;12.00;99.90;;;;;;5118251;28;19931;-73
2021/11/19 01:18:29;;;;;;;;;;;12.00;99.90;;;;;;5105111;28;19924;-74
2021/11/19 01:20:58;;;;;;;;;;;12.00;99.90;;;;;;5097506;28;20322;-73
2021/11/19 01:23:27;;;;;;;;;;;12.00;99.90;;;;;;5097614;28;19935;-73
2021/11/19 01:25:56;;;;;;;;;;;12.00;99.90;;;;;;5097511;28;20238;-73
2021/11/19 01:28:24;;;;;;;;;;;12.00;99.90;;;;;;5096641;28;20246;-73
2021/11/19 01:30:53;;;;;;;;;;;12.10;99.90;;;;;;5117746;28;19937;-73
2021/11/19 01:33:20;;;;;;;;;;;12.10;99.90;;;;;;5117627;28;19934;-73
2021/11/19 01:35:47;;;;;;;;;;;12.10;99.90;;;;;;5117644;28;19930;-73
2021/11/19 01:38:17;;;;;;;;;;;12.10;99.90;;;;;;5117451;28;19924;-73
2021/11/19 01:40:48;;;;;;;;;;;12.20;99.90;;;;;;5117705;28;19934;-73
2021/11/19 01:43:15;;;;;;;;;;;12.20;99.90;;;;;;5116777;28;19938;-73
2021/11/19 01:45:46;;;;;;;;;;;12.20;99.90;;;;;;5117373;28;20275;-73
2021/11/19 01:48:18;;;;;;;;;;;12.20;99.90;;;;;;5100328;28;19925;-73
2021/11/19 01:50:49;;;;;;;;;;;12.20;99.90;;;;;;5076649;28;19925;-73
2021/11/19 01:53:30;;;;;;;;;;;12.20;99.90;;;;;;5076749;28;19993;-73
2021/11/19 01:55:58;;;;;;;;;;;12.20;99.90;;;;;;5088267;28;19974;-73
2021/11/19 01:58:27;;;;;;;;;;;12.20;99.90;;;;;;5097073;28;19968;-73
2021/11/19 02:00:55;;;;;;;;;;;12.10;99.90;;;;;;5095366;28;19934;-75
2021/11/19 02:03:23;;;;;;;;;;;12.20;99.90;;;;;;5096793;28;19973;-73
2021/11/19 02:05:51;;;;;;;;;;;12.20;99.90;;;;;;5096741;28;20378;-74
2021/11/19 02:08:21;;;;;;;;;;;12.20;99.90;;;;;;5096957;28;19931;-73
2021/11/19 02:10:52;;;;;;;;;;;12.20;99.90;;;;;;5096474;28;19924;-73
2021/11/19 02:13:20;;;;;;;;;;;12.20;99.90;;;;;;5096718;28;20298;-73
2021/11/19 02:15:48;;;;;;;;;;;12.20;99.90;;;;;;5096451;28;19924;-73
2021/11/19 02:18:16;;;;;;;;;;;12.20;99.90;;;;;;5096434;28;19924;-73
2021/11/19 02:20:45;;;;;;;;;;;12.30;99.90;;;;;;5096650;28;19924;-73
2021/11/19 02:23:13;;;;;;;;;;;12.20;99.90;;;;;;5096389;28;19924;-73
2021/11/19 02:25:41;;;;;;;;;;;12.20;99.90;;;;;;5096202;28;19935;-73
2021/11/19 02:28:10;;;;;;;;;;;12.20;99.90;;;;;;5096059;28;19924;-73
2021/11/19 02:30:50;;;;;;;;;;;12.20;99.90;;;;;;5096154;28;20342;-73
2021/11/19 02:33:17;;;;;;;;;;;12.20;99.90;;;;;;5096257;28;19939;-73
2021/11/19 02:35:48;;;;;;;;;;;12.20;99.90;;;;;;5096043;28;19932;-73
2021/11/19 02:38:15;;;;;;;;;;;12.20;99.90;;;;;;5095976;28;20256;-73
2021/11/19 02:40:44;;;;;;;;;;;12.20;99.90;;;;;;5096435;28;19935;-73
2021/11/19 02:43:11;;;;;;;;;;;12.20;99.90;;;;;;5096245;28;19924;-73
2021/11/19 02:45:39;;;;;;;;;;;12.20;99.90;;;;;;5095993;28;20271;-73
2021/11/19 02:48:06;;;;;;;;;;;12.30;99.90;;;;;;5095262;28;19924;-73
2021/11/19 02:50:32;;;;;;;;;;;12.30;99.90;;;;;;5095868;28;20314;-73
2021/11/19 02:52:59;;;;;;;;;;;12.30;99.90;;;;;;5095857;28;19931;-73
2021/11/19 02:55:28;;;;;;;;;;;12.30;99.90;;;;;;5095631;28;20278;-73
2021/11/19 02:57:56;;;;;;;;;;;12.30;99.90;;;;;;5095701;28;19934;-73
2021/11/19 03:00:24;;;;;;;;;;;12.30;99.90;;;;;;5095756;28;19924;-73
2021/11/19 03:02:51;;;;;;;;;;;12.30;99.90;;;;;;5095855;28;19924;-74
2021/11/19 03:05:19;;;;;;;;;;;12.30;99.90;;;;;;5095480;28;19928;-73
2021/11/19 03:07:46;;;;;;;;;;;12.30;99.90;;;;;;5095524;28;19924;-73
2021/11/19 03:10:14;;;;;;;;;;;12.30;99.90;;;;;;5093420;28;21356;-74
2021/11/19 03:12:41;;;;;;;;;;;12.30;99.90;;;;;;5101421;28;19943;-76
2021/11/19 03:15:11;;;;;;;;;;;12.30;99.90;;;;;;5106024;28;19939;-73
2021/11/19 03:17:38;;;;;;;;;;;12.30;99.90;;;;;;5115696;28;19938;-73
2021/11/19 03:20:05;;;;;;;;;;;12.30;99.90;;;;;;5115946;28;19924;-73
2021/11/19 03:22:32;;;;;;;;;;;12.30;99.90;;;;;;5115968;28;19924;-73
2021/11/19 03:24:59;;;;;;;;;;;12.30;99.90;;;;;;5107258;28;20352;-73
2021/11/19 03:27:28;;;;;;;;;;;12.20;99.90;;;;;;5095094;28;19924;-74
2021/11/19 03:29:55;;;;;;;;;;;12.20;99.90;;;;;;5095452;28;19967;-74
2021/11/19 03:32:24;;;;;;;;;;;12.20;99.90;;;;;;5094815;28;20364;-74
2021/11/19 03:34:51;;;;;;;;;;;12.20;99.90;;;;;;5095202;28;19924;-73
2021/11/19 03:37:18;;;;;;;;;;;12.20;99.90;;;;;;5095364;28;19928;-73
2021/11/19 03:39:45;;;;;;;;;;;12.20;99.90;;;;;;5095027;28;19935;-73
2021/11/19 03:42:12;;;;;;;;;;;12.20;99.90;;;;;;5095028;28;19932;-73
2021/11/19 03:44:40;;;;;;;;;;;12.20;99.90;;;;;;5095084;28;19924;-73
2021/11/19 03:47:07;;;;;;;;;;;12.20;99.90;;;;;;5094978;28;19947;-73
2021/11/19 03:49:36;;;;;;;;;;;12.20;99.90;;;;;;5094980;28;19924;-73
2021/11/19 03:52:04;;;;;;;;;;;12.20;99.90;;;;;;5094960;28;19924;-73
2021/11/19 03:54:31;;;;;;;;;;;12.20;99.90;;;;;;5095100;28;19924;-74
2021/11/19 03:56:58;;;;;;;;;;;12.20;99.90;;;;;;5094943;28;19938;-73
2021/11/19 03:59:25;;;;;;;;;;;12.20;99.90;;;;;;5095624;28;19924;-73
2021/11/19 04:01:52;;;;;;;;;;;12.20;99.90;;;;;;5099081;28;19924;-74
2021/11/19 04:04:20;;;;;;;;;;;12.20;99.90;;;;;;5099006;28;19924;-73
2021/11/19 04:06:48;;;;;;;;;;;12.20;99.90;;;;;;5099185;28;19924;-73
2021/11/19 04:09:15;;;;;;;;;;;12.30;99.90;;;;;;5099218;28;19924;-73
2021/11/19 04:11:42;;;;;;;;;;;12.30;99.90;;;;;;5098976;28;19931;-73
2021/11/19 04:14:09;;;;;;;;;;;12.30;99.90;;;;;;5098788;28;19927;-74
2021/11/19 04:16:36;;;;;;;;;;;12.20;99.90;;;;;;5099051;28;19924;-73
2021/11/19 04:19:03;;;;;;;;;;;12.20;99.90;;;;;;5098735;28;19934;-73
2021/11/19 04:21:30;;;;;;;;;;;12.20;99.90;;;;;;5098555;28;19932;-73
2021/11/19 04:23:59;;;;;;;;;;;12.20;99.90;;;;;;5098851;28;19924;-73
2021/11/19 04:26:27;;;;;;;;;;;12.20;99.90;;;;;;5098667;28;19986;-73
2021/11/19 04:28:53;;;;;;;;;;;12.20;99.90;;;;;;5098391;28;19924;-73
2021/11/19 04:31:20;;;;;;;;;;;12.20;99.90;;;;;;5098714;28;19955;-73
2021/11/19 04:33:47;;;;;;;;;;;12.20;99.90;;;;;;5098773;28;20260;-73
2021/11/19 04:36:14;;;;;;;;;;;12.20;99.90;;;;;;5098451;28;20256;-73
2021/11/19 04:38:41;;;;;;;;;;;12.20;99.90;;;;;;5098399;28;20229;-73
2021/11/19 04:41:09;;;;;;;;;;;12.20;99.90;;;;;;5098392;28;19934;-73
2021/11/19 04:43:36;;;;;;;;;;;12.20;99.90;;;;;;5098192;28;19935;-73
2021/11/19 04:46:03;;;;;;;;;;;12.20;99.90;;;;;;5098266;28;19986;-73
2021/11/19 04:48:32;;;;;;;;;;;12.20;99.90;;;;;;5098413;28;19924;-73
2021/11/19 04:50:59;;;;;;;;;;;12.20;99.90;;;;;;5098324;28;19928;-73
2021/11/19 04:53:26;;;;;;;;;;;12.20;99.90;;;;;;5098189;28;19924;-73
2021/11/19 04:55:53;;;;;;;;;;;12.20;99.90;;;;;;5098145;28;19924;-73
2021/11/19 04:58:21;;;;;;;;;;;12.20;99.90;;;;;;5097982;28;19924;-73
2021/11/19 05:00:49;;;;;;;;;;;12.20;99.90;;;;;;5097925;28;19924;-75
2021/11/19 05:03:16;;;;;;;;;;;12.20;99.90;;;;;;5097946;28;20311;-75
2021/11/19 05:05:43;;;;;;;;;;;12.20;99.90;;;;;;5097976;28;20303;-75
2021/11/19 05:08:10;;;;;;;;;;;12.20;99.90;;;;;;5097861;28;19934;-75
2021/11/19 05:10:37;;;;;;;;;;;12.20;99.90;;;;;;5097815;28;19935;-75
2021/11/19 05:13:04;;;;;;;;;;;12.20;99.90;;;;;;5097231;28;19924;-75
2021/11/19 05:15:32;;;;;;;;;;;12.20;99.90;;;;;;5097911;28;19934;-76
2021/11/19 05:17:59;;;;;;;;;;;12.20;99.90;;;;;;5097683;28;19928;-75
2021/11/19 05:20:26;;;;;;;;;;;12.20;99.90;;;;;;5097513;28;19934;-75
2021/11/19 05:22:53;;;;;;;;;;;12.20;99.90;;;;;;5097559;28;19935;-76
2021/11/19 05:25:21;;;;;;;;;;;12.20;99.90;;;;;;5097485;28;20280;-75
2021/11/19 05:27:48;;;;;;;;;;;12.20;99.90;;;;;;5097187;28;19923;-75
2021/11/19 05:30:15;;;;;;;;;;;12.20;99.90;;;;;;5097516;28;19935;-75
2021/11/19 05:32:44;;;;;;;;;;;12.20;99.90;;;;;;5097229;28;19924;-73
2021/11/19 05:35:11;;;;;;;;;;;12.10;99.90;;;;;;5097186;28;20379;-73
2021/11/19 05:37:37;;;;;;;;;;;12.10;99.90;;;;;;5097190;28;19931;-73
2021/11/19 05:40:05;;;;;;;;;;;12.10;99.90;;;;;;5096991;28;19934;-74
2021/11/19 05:42:32;;;;;;;;;;;12.00;99.90;;;;;;5097593;28;19935;-74
2021/11/19 05:44:58;;;;;;;;;;;12.00;99.90;;;;;;5097554;28;19924;-74
2021/11/19 05:47:25;;;;;;;;;;;11.90;99.90;;;;;;5097355;28;19935;-74
2021/11/19 05:49:57;;;;;;;;;;;11.90;99.90;;;;;;5097198;28;20279;-73
2021/11/19 05:52:24;;;;;;;;;;;11.90;99.90;;;;;;5096897;28;19924;-74
2021/11/19 05:54:51;;;;;;;;;;;11.90;99.90;;;;;;5096826;28;19967;-73
2021/11/19 05:57:18;;;;;;;;;;;11.90;99.90;;;;;;5096862;28;19924;-74
2021/11/19 05:59:45;;;;;;;;;;;11.90;99.90;;;;;;5096929;28;20256;-73
2021/11/19 06:02:15;;;;;;;;;;;11.90;99.90;;;;;;5096781;28;20409;-74
2021/11/19 06:04:42;;;;;;;;;;;11.80;99.90;;;;;;5096776;28;19935;-74
2021/11/19 06:07:10;;;;;;;;;;;11.80;99.90;;;;;;5096706;28;19924;-74
2021/11/19 06:09:40;;;;;;;;;;;11.80;99.90;;;;;;5096974;28;20018;-74
2021/11/19 06:12:08;;;;;;;;;;;11.80;99.90;;;;;;5096935;28;19924;-73
2021/11/19 06:14:36;;;;;;;;;;;11.80;99.90;;;;;;5096469;28;19935;-74
2021/11/19 06:17:04;;;;;;;;;;;11.70;99.90;;;;;;5096795;28;19935;-74
2021/11/19 06:19:32;;;;;;;;;;;11.70;99.90;;;;;;5096509;28;19935;-74
2021/11/19 06:22:04;;;;;;;;;;;11.70;99.90;;;;;;5096396;28;19958;-74
2021/11/19 06:24:33;;;;;;;;;;;11.70;99.90;;;;;;5095544;28;19927;-74
2021/11/19 06:27:00;;;;;;;;;;;11.70;99.90;;;;;;5096525;28;19930;-75
2021/11/19 06:29:26;;;;;;;;;;;11.60;99.90;;;;;;5096506;28;19934;-74
2021/11/19 06:31:54;;;;;;;;;;;11.60;99.90;;;;;;5096436;28;20278;-74
2021/11/19 06:34:21;;;;;;;;;;;11.60;99.90;;;;;;5096205;28;19989;-74
2021/11/19 06:36:48;;;;;;;;;;;11.50;99.90;;;;;;5096165;28;19924;-74
2021/11/19 06:39:15;;;;;;;;;;;11.50;99.90;;;;;;5096242;28;20359;-74
2021/11/19 06:41:44;;;;;;;;;;;11.50;99.90;;;;;;5096323;28;19934;-73
2021/11/19 06:44:11;;;;;;;;;;;11.40;99.90;;;;;;5095943;28;19928;-74
2021/11/19 06:46:37;;;;;;;;;;;11.40;99.90;;;;;;5096036;28;20229;-73
2021/11/19 06:49:04;;;;;;;;;;;11.30;99.90;;;;;;5096029;28;19931;-73
2021/11/19 06:51:31;;;;;;;;;;;11.30;99.90;;;;;;5095907;28;20337;-74
2021/11/19 06:53:58;;;;;;;;;;;11.20;99.90;;;;;;5095838;28;19924;-74
2021/11/19 06:56:25;;;;;;;;;;;11.20;99.90;;;;;;5095769;28;19925;-74
2021/11/19 06:58:53;;;;;;;;;;;11.10;99.90;;;;;;5095726;28;19924;-74
2021/11/19 07:01:20;;;;;;;;;;;11.10;99.90;;;;;;5095739;28;20374;-74
2021/11/19 07:03:47;;;;;;;;;;;11.00;99.90;;;;;;5095788;28;19935;-73
2021/11/19 07:06:14;;;;;;;;;;;11.00;99.90;;;;;;5095858;28;19924;-74
2021/11/19 07:08:41;;;;;;;;;;;11.00;99.90;;;;;;5095840;28;20363;-74
2021/11/19 07:11:09;;;;;;;;;;;10.90;99.90;;;;;;5095963;28;20252;-76
2021/11/19 07:13:36;;;;;;;;;;;10.90;99.90;;;;;;5095685;28;19924;-76
2021/11/19 07:16:05;;;;;;;;;;;10.90;99.90;;;;;;5095639;28;19924;-76
2021/11/19 07:18:32;;;;;;;;;;;10.80;99.90;;;;;;5095553;28;19938;-76
2021/11/19 07:20:58;;;;;;;;;;;10.80;99.90;;;;;;5095635;28;19924;-76
2021/11/19 07:23:25;;;;;;;;;;;10.80;99.90;;;;;;5095507;28;19924;-76
2021/11/19 07:25:54;;;;;;;;;;;10.70;99.90;;;;;;5095363;28;20259;-76
2021/11/19 07:28:21;;;;;;;;;;;10.70;99.90;;;;;;5095242;28;20345;-76
2021/11/19 07:30:50;;;;;;;;;;;10.70;99.90;;;;;;5095187;28;19924;-77
2021/11/19 07:33:19;;;;;;;;;;;10.70;99.90;;;;;;5095471;28;19993;-76
2021/11/19 07:35:46;;;;;;;;;;;10.60;99.90;;;;;;5094787;28;20271;-76
2021/11/19 07:38:13;;;;;;;;;;;10.60;99.90;;;;;;5095369;28;19924;-76
2021/11/19 07:40:40;;;;;;;;;;;10.60;99.90;;;;;;5095142;28;19924;-76
2021/11/19 07:43:07;;;;;;;;;;;10.60;99.90;;;;;;5095276;28;20237;-76
2021/11/19 07:45:37;;;;;;;;;;;10.50;99.90;;;;;;5095255;28;20386;-76
2021/11/19 07:48:03;;;;;;;;;;;10.50;99.90;;;;;;5095087;28;20306;-76
2021/11/19 07:50:32;;;;;;;;;;;10.50;99.90;;;;;;5095144;28;20358;-75
2021/11/19 07:52:59;;;;;;;;;;;10.50;99.90;;;;;;5095297;28;19925;-76
2021/11/19 07:55:26;;;;;;;;;;;10.40;99.90;;;;;;5095196;28;20352;-74
2021/11/19 07:57:53;;;;;;;;;;;10.40;99.90;;;;;;5095118;28;20017;-79
2021/11/19 08:00:20;;;;;;;;;;;10.40;99.90;;;;;;5094862;28;19959;-76
2021/11/19 08:02:47;;;;;;;;;;;10.40;99.90;;;;;;5095169;28;19950;-76
2021/11/19 08:05:14;;;;;;;;;;;10.40;99.90;;;;;;5094934;28;19934;-77
2021/11/19 08:07:42;;;;;;;;;;;10.40;99.90;;;;;;5095129;28;19938;-76
2021/11/19 08:10:09;;;;;;;;;;;10.40;99.90;;;;;;5094878;28;19950;-76
2021/11/19 08:12:37;;;;;;;;;;;10.40;99.90;;;;;;5094913;28;19934;-77
2021/11/19 08:15:04;;;;;;;;;;;10.40;99.90;;;;;;5095116;28;19989;-77
2021/11/19 08:17:31;;;;;;;;;;;10.50;99.90;;;;;;5094986;28;19928;-76
2021/11/19 08:19:58;;;;;;;;;;;10.50;99.90;;;;;;5094658;28;19934;-76
2021/11/19 08:22:25;;;;;;;;;;;10.50;99.90;;;;;;5094904;28;19924;-76
2021/11/19 08:24:53;;;;;;;;;;;10.50;99.90;;;;;;5095016;28;19930;-76
2021/11/19 08:27:21;;;;;;;;;;;10.50;99.90;;;;;;5094788;28;19928;-76
2021/11/19 08:29:49;;;;;;;;;;;10.60;99.90;;;;;;5094586;28;19924;-76
2021/11/19 08:32:16;;;;;;;;;;;10.60;99.90;;;;;;5094627;28;20370;-76
2021/11/19 08:34:43;;;;;;;;;;;10.70;99.90;;;;;;5094880;28;19934;-77
2021/11/19 08:37:10;;;;;;;;;;;10.70;99.90;;;;;;5095174;28;19964;-77
2021/11/19 08:39:36;;;;;;;;;;;10.70;99.90;;;;;;5094852;28;19924;-77
2021/11/19 08:42:06;;;;;;;;;;;10.70;99.90;;;;;;5094900;28;20252;-77
2021/11/19 08:44:33;;;;;;;;;;;10.80;99.90;;;;;;5094773;28;20298;-78
2021/11/19 08:47:00;;;;;;;;;;;10.80;99.90;;;;;;5095957;28;19935;-77
2021/11/19 08:49:27;;;;;;;;;;;10.80;99.90;;;;;;5098329;28;19924;-77
2021/11/19 08:51:54;;;;;;;;;;;10.90;99.90;;;;;;5098204;28;19924;-77
2021/11/19 08:54:21;;;;;;;;;;;10.90;99.90;;;;;;5098238;28;19928;-77
2021/11/19 08:56:50;;;;;;;;;;;11.00;99.90;;;;;;5098134;28;19924;-76
2021/11/19 08:59:18;;;;;;;;;;;11.00;99.90;;;;;;5098146;28;19924;-80
2021/11/19 09:01:46;;;;;;;;;;;11.00;99.90;;;;;;5097898;28;19924;-74
2021/11/19 09:04:13;;;;;;;;;;;11.00;99.90;;;;;;5097989;28;19924;-72
2021/11/19 09:06:40;;;;;;;;;;;11.10;99.90;;;;;;5098164;28;19969;-71
2021/11/19 09:09:07;;;;;;;;;;;11.10;99.90;;;;;;5097889;28;19924;-71
2021/11/19 09:11:34;;;;;;;;;;;11.10;99.90;;;;;;5098105;28;20263;-71
2021/11/19 09:14:01;;;;;;;;;;;11.10;99.90;;;;;;5103636;28;19930;-71
2021/11/19 09:16:34;;;;;;;;;;;11.20;99.90;;;;;;5118322;28;19924;-74
2021/11/19 09:19:09;;;;;;;;;;;11.20;99.90;;;;;;5118181;28;19985;-71
2021/11/19 09:21:36;;;;;;;;;;;11.20;99.90;;;;;;5117828;28;20332;-71
2021/11/19 09:24:04;;;;;;;;;;;11.30;99.90;;;;;;5118158;28;19931;-72
2021/11/19 09:26:35;;;;;;;;;;;11.30;99.90;;;;;;5117921;28;20348;-71
2021/11/19 09:29:03;;;;;;;;;;;11.30;99.90;;;;;;5117623;28;19927;-71
2021/11/19 09:31:31;;;;;;;;;;;11.30;99.90;;;;;;5118023;28;19934;-72
2021/11/19 09:33:58;;;;;;;;;;;11.30;99.90;;;;;;5117746;28;19924;-71
2021/11/19 09:36:25;;;;;;;;;;;11.40;99.90;;;;;;5117725;28;20286;-72
2021/11/19 09:38:51;;;;;;;;;;;11.40;99.90;;;;;;5117718;28;20115;-72
2021/11/19 09:41:36;;;;;;;;;;;11.40;99.90;;;;;;5117713;28;19934;-71
2021/11/19 09:44:06;;;;;;;;;;;11.40;99.90;;;;;;5117657;28;19924;-71
2021/11/19 09:46:51;;;;;;;;;;;11.40;99.90;;;;;;5117909;28;19927;-72
2021/11/19 09:49:29;;;;;;;;;;;11.40;99.90;;;;;;5116644;28;19924;-71
2021/11/19 09:52:23;;;;;;;;;;;11.30;99.90;;;;;;5117910;28;19924;-71
2021/11/19 09:55:05;;;;;;;;;;;11.30;99.90;;;;;;5117459;28;19927;-71
2021/11/19 09:57:47;;;;;;;;;;;11.30;99.90;;;;;;5117332;28;19923;-71
2021/11/19 10:00:16;;;;;;;;;;;11.20;99.90;;;;;;5117432;28;19930;-71
2021/11/19 10:02:58;;;;;;;;;;;11.20;99.90;;;;;;5117225;28;19928;-71
2021/11/19 10:05:28;;;;;;;;;;;11.20;99.90;;;;;;5114700;28;19924;-71
2021/11/19 10:08:00;;;;;;;;;;;11.20;99.90;;;;;;5117569;28;19923;-71
2021/11/19 10:10:34;;;;;;;;;;;11.20;99.90;;;;;;5117223;28;20334;-71
2021/11/19 10:13:01;;;;;;;;;;;11.30;99.90;;;;;;5117145;28;19924;-71
2021/11/19 10:15:32;;;;;;;;;;;11.30;99.90;;;;;;5117080;28;19924;-71
2021/11/19 10:18:00;;;;;;;;;;;11.30;99.90;;;;;;5116945;28;20318;-71
2021/11/19 10:20:29;;;;;;;;;;;11.30;99.90;;;;;;5116992;28;20337;-71
2021/11/19 10:23:04;;;;;;;;;;;11.40;99.90;;;;;;5117131;28;19924;-71
2021/11/19 10:25:32;;;;;;;;;;;11.40;99.90;;;;;;5116845;28;19934;-71
2021/11/19 10:27:59;;;;;;;;;;;11.40;99.90;;;;;;5116523;28;20243;-71
2021/11/19 10:30:29;;;;;;;;;;;11.50;99.90;;;;;;5116757;28;19923;-71
2021/11/19 10:32:56;;;;;;;;;;;11.50;99.90;;;;;;5116602;28;19924;-71
2021/11/19 10:35:47;;;;;;;;;;;11.50;99.90;;;;;;5116741;28;19930;-71
2021/11/19 10:38:37;;;;;;;;;;;11.50;99.90;;;;;;5100980;28;19932;-71
2021/11/19 10:41:19;;;;;;;;;;;11.50;99.90;;;;;;5116571;28;19927;-71
2021/11/19 10:44:12;;;;;;;;;;;11.50;99.90;;;;;;5100639;28;19924;-71
2021/11/19 10:46:56;;;;;;;;;;;11.50;99.90;;;;;;5096041;28;19924;-71
2021/11/19 10:49:40;;;;;;;;;;;11.60;99.90;;;;;;5095884;28;19985;-71
2021/11/19 10:52:16;;;;;;;;;;;11.60;99.90;;;;;;5096006;28;19934;-72
2021/11/19 10:54:57;;;;;;;;;;;11.60;99.90;;;;;;5095931;28;20340;-71
2021/11/19 10:57:39;;;;;;;;;;;11.60;99.90;;;;;;5091965;28;20018;-71
2021/11/19 11:00:10;;;;;;;;;;;11.60;99.90;;;;;;5074917;28;20276;-71
2021/11/19 11:02:37;;;;;;;;;;;11.70;99.90;;;;;;5101800;28;20257;-71
2021/11/19 11:05:12;;;;;;;;;;;11.70;99.90;;;;;;5098521;28;19989;-72
2021/11/19 11:07:40;;;;;;;;;;;11.70;99.90;;;;;;5095579;28;20263;-71
2021/11/19 11:10:07;;;;;;;;;;;11.80;99.90;;;;;;5095143;28;19923;-72
2021/11/19 11:12:44;;;;;;;;;;;11.80;99.90;;;;;;5095447;28;19975;-71
2021/11/19 11:15:29;;;;;;;;;;;11.80;99.90;;;;;;5095477;28;19924;-71
2021/11/19 11:18:01;;;;;;;;;;;11.70;99.90;;;;;;5095629;28;20263;-71
2021/11/19 11:20:29;;;;;;;;;;;11.80;99.90;;;;;;5095398;28;19924;-71
2021/11/19 11:22:56;;;;;;;;;;;11.80;99.90;;;;;;5095391;28;19931;-71
2021/11/19 11:25:25;;;;;;;;;;;11.80;99.90;;;;;;5095509;28;19930;-71
2021/11/19 11:27:59;;;;;;;;;;;11.90;99.90;;;;;;5095250;28;19993;-71
2021/11/19 11:30:28;;;;;;;;;;;11.90;99.90;;;;;;5095702;28;19924;-71
2021/11/19 11:32:58;;;;;;;;;;;12.00;99.90;;;;;;5095225;28;20341;-71
2021/11/19 11:35:39;;;;;;;;;;;12.10;99.90;;;;;;5094994;28;20336;-71
2021/11/19 11:38:26;;;;;;;;;;;12.00;99.90;;;;;;5091233;28;19935;-71
2021/11/19 11:41:01;;;;;;;;;;;12.10;99.90;;;;;;5095346;28;19924;-71
2021/11/19 11:43:29;;;;;;;;;;;12.20;99.90;;;;;;5095243;28;19930;-71
2021/11/19 11:45:58;;;;;;;;;;;12.20;99.90;;;;;;5095115;28;19935;-71
2021/11/19 11:48:28;;;;;;;;;;;12.30;99.90;;;;;;5095270;28;19924;-71
2021/11/19 11:50:56;;;;;;;;;;;12.40;99.90;;;;;;5095366;28;19967;-71
2021/11/19 11:53:24;;;;;;;;;;;12.40;99.90;;;;;;5095332;28;19924;-71
2021/11/19 11:56:05;;;;;;;;;;;12.50;99.90;;;;;;5094060;28;19924;-71
2021/11/19 11:58:33;;;;;;;;;;;12.50;99.90;;;;;;5095258;28;19950;-72
2021/11/19 12:01:04;;;;;;;;;;;12.60;99.90;;;;;;5094895;28;19930;-72
2021/11/19 12:03:36;;;;;;;;;;;12.60;99.90;;;;;;5095216;28;19924;-72
2021/11/19 12:06:05;;;;;;;;;;;12.60;99.90;;;;;;5094935;28;19938;-72
2021/11/19 12:08:42;;;;;;;;;;;12.60;99.90;;;;;;5095178;28;19935;-72
2021/11/19 12:11:24;;;;;;;;;;;12.70;99.90;;;;;;5095115;28;20268;-72
2021/11/19 12:13:51;;;;;;;;;;;12.70;99.90;;;;;;5095159;28;19930;-71
2021/11/19 12:16:23;;;;;;;;;;;12.70;99.90;;;;;;5094862;28;19924;-72
2021/11/19 12:18:51;;;;;;;;;;;12.70;99.90;;;;;;5094840;28;19939;-72
2021/11/19 12:21:20;;;;;;;;;;;12.70;99.90;;;;;;5095321;28;19950;-72
2021/11/19 12:23:48;;;;;;;;;;;12.80;99.90;;;;;;5099144;28;19932;-72
2021/11/19 12:26:22;;;;;;;;;;;12.80;99.90;;;;;;5098627;28;19924;-71
2021/11/19 12:28:50;;;;;;;;;;;12.80;99.90;;;;;;5098457;28;20340;-72
2021/11/19 12:31:18;;;;;;;;;;;12.90;99.90;;;;;;5098631;28;19924;-72
2021/11/19 12:33:47;;;;;;;;;;;12.90;99.90;;;;;;5098538;28;19934;-72
2021/11/19 12:36:15;;;;;;;;;;;12.80;99.90;;;;;;5098612;28;19928;-72
2021/11/19 12:38:43;;;;;;;;;;;12.80;99.90;;;;;;5098647;28;19935;-72
2021/11/19 12:41:12;;;;;;;;;;;12.80;99.90;;;;;;5098499;28;19971;-72
2021/11/19 12:43:58;;;;;;;;;;;12.80;99.90;;;;;;5098444;28;19935;-72
2021/11/19 12:46:33;;;;;;;;;;;12.90;99.90;;;;;;5098344;28;19946;-72
2021/11/19 12:49:17;;;;;;;;;;;13.00;99.90;;;;;;5098252;28;19924;-72
2021/11/19 12:51:47;;;;;;;;;;;13.00;99.90;;;;;;5098183;28;19924;-71
2021/11/19 12:54:23;;;;;;;;;;;13.00;99.90;;;;;;5098246;28;19924;-72
2021/11/19 12:57:00;;;;;;;;;;;13.00;99.90;;;;;;5098284;28;19928;-72
2021/11/19 12:59:40;;;;;;;;;;;13.00;99.90;;;;;;5098535;28;19924;-72
2021/11/19 13:02:28;;;;;;;;;;;13.00;99.90;;;;;;5097897;28;20359;-71
2021/11/19 13:05:01;;;;;;;;;;;13.00;99.90;;;;;;5090071;28;19997;-72
2021/11/19 13:07:31;;;;;;;;;;;13.00;99.90;;;;;;5097913;28;19924;-71
2021/11/19 13:09:59;;;;;;;;;;;13.00;99.90;;;;;;5097717;28;19932;-72
2021/11/19 13:12:44;;;;;;;;;;;13.00;99.90;;;;;;5098127;28;19935;-72
2021/11/19 13:15:26;;;;;;;;;;;13.00;99.90;;;;;;5097887;28;19931;-72
2021/11/19 13:18:01;;;;;;;;;;;13.10;99.90;;;;;;5094007;28;19928;-72
2021/11/19 13:20:42;;;;;;;;;;;13.10;99.90;;;;;;5097701;28;19923;-72
2021/11/19 13:23:28;;;;;;;;;;;13.20;99.90;;;;;;5093597;28;19924;-72
2021/11/19 13:25:57;;;;;;;;;;;13.20;99.90;;;;;;5097630;28;19934;-72
2021/11/19 13:28:42;;;;;;;;;;;13.20;99.90;;;;;;5097378;28;19924;-72
2021/11/19 13:31:24;;;;;;;;;;;13.30;99.90;;;;;;5097626;28;20001;-72
2021/11/19 13:34:05;;;;;;;;;;;13.30;99.90;;;;;;5096953;28;19928;-72
2021/11/19 13:36:36;;;;;;;;;;;13.30;99.90;;;;;;5095485;28;20263;-71
2021/11/19 13:39:07;;;;;;;;;;;13.30;99.90;;;;;;5097033;28;20337;-72
2021/11/19 13:41:35;;;;;;;;;;;13.30;99.90;;;;;;5096523;28;19934;-72
2021/11/19 13:44:02;;;;;;;;;;;13.40;99.90;;;;;;5097122;28;20251;-72
2021/11/19 13:46:43;;;;;;;;;;;13.40;99.90;;;;;;5097468;28;20267;-72
2021/11/19 13:49:29;;;;;;;;;;;13.30;99.90;;;;;;5097150;28;19924;-72
2021/11/19 13:52:01;;;;;;;;;;;13.30;99.90;;;;;;5097267;28;19924;-72
2021/11/19 13:54:30;;;;;;;;;;;13.40;99.90;;;;;;5096991;28;19924;-72
2021/11/19 13:57:12;;;;;;;;;;;13.40;99.90;;;;;;5097272;28;19954;-72
2021/11/19 13:59:42;;;;;;;;;;;13.50;99.90;;;;;;5096096;28;19931;-72
2021/11/19 14:02:10;;;;;;;;;;;13.50;99.90;;;;;;5095896;28;20260;-72
2021/11/19 14:04:42;;;;;;;;;;;13.60;99.90;;;;;;5096702;28;19934;-72
2021/11/19 14:07:13;;;;;;;;;;;13.60;99.90;;;;;;5096534;28;19924;-72
2021/11/19 14:09:42;;;;;;;;;;;13.60;99.90;;;;;;5096359;28;19935;-72
2021/11/19 14:12:15;;;;;;;;;;;13.60;99.90;;;;;;5096705;28;19946;-72
2021/11/19 14:14:43;;;;;;;;;;;13.60;99.90;;;;;;5096896;28;19938;-72
2021/11/19 14:17:11;;;;;;;;;;;13.60;99.90;;;;;;5096796;28;19924;-72
2021/11/19 14:19:48;;;;;;;;;;;13.60;99.90;;;;;;5096446;28;19924;-72
2021/11/19 14:22:15;;;;;;;;;;;13.60;99.90;;;;;;5096602;28;19950;-72
2021/11/19 14:24:48;;;;;;;;;;;13.60;99.90;;;;;;5096319;28;19978;-72
2021/11/19 14:27:18;;;;;;;;;;;13.50;99.90;;;;;;5096420;28;20355;-72
2021/11/19 14:29:46;;;;;;;;;;;13.50;99.90;;;;;;5096195;28;20007;-72
2021/11/19 14:32:15;;;;;;;;;;;13.40;99.90;;;;;;5096335;28;19932;-72